sensor_id;sensor_type;location;lat;lon;timestamp;P1;durP1;ratioP1;P2;durP2;ratioP2
71150;SDS011;59071;42.138;24.768;2022-11-15T00:01:37;39.95;;;22.48;;
71150;SDS011;59071;42.138;24.768;2022-11-15T00:04:03;39.20;;;22.67;;
71150;SDS011;59071;42.138;24.768;2022-11-15T00:06:29;38.25;;;23.27;;
71150;SDS011;59071;42.138;24.768;2022-11-15T00:08:57;38.60;;;23.60;;
71150;SDS011;59071;42.138;24.768;2022-11-15T00:11:23;40.17;;;22.83;;
71150;SDS011;59071;42.138;24.768;2022-11-15T00:13:49;37.08;;;22.27;;
71150;SDS011;59071;42.138;24.768;2022-11-15T00:16:14;37.78;;;21.83;;
71150;SDS011;59071;42.138;24.768;2022-11-15T00:18:39;38.03;;;21.55;;
71150;SDS011;59071;42.138;24.768;2022-11-15T00:21:07;38.10;;;21.60;;
71150;SDS011;59071;42.138;24.768;2022-11-15T00:23:34;37.38;;;21.60;;
71150;SDS011;59071;42.138;24.768;2022-11-15T00:26:00;36.33;;;21.88;;
71150;SDS011;59071;42.138;24.768;2022-11-15T00:28:26;37.88;;;21.17;;
71150;SDS011;59071;42.138;24.768;2022-11-15T00:30:51;37.13;;;22.08;;
71150;SDS011;59071;42.138;24.768;2022-11-15T00:33:17;38.85;;;22.67;;
71150;SDS011;59071;42.138;24.768;2022-11-15T00:35:42;46.75;;;22.67;;
71150;SDS011;59071;42.138;24.768;2022-11-15T00:38:07;41.33;;;23.23;;
71150;SDS011;59071;42.138;24.768;2022-11-15T00:40:33;39.28;;;21.88;;
71150;SDS011;59071;42.138;24.768;2022-11-15T00:42:58;33.80;;;21.42;;
71150;SDS011;59071;42.138;24.768;2022-11-15T00:45:24;39.08;;;23.30;;
71150;SDS011;59071;42.138;24.768;2022-11-15T00:47:50;37.58;;;21.98;;
71150;SDS011;59071;42.138;24.768;2022-11-15T00:50:16;39.90;;;21.98;;
71150;SDS011;59071;42.138;24.768;2022-11-15T00:52:42;40.50;;;23.02;;
71150;SDS011;59071;42.138;24.768;2022-11-15T00:55:09;40.88;;;23.60;;
71150;SDS011;59071;42.138;24.768;2022-11-15T00:57:39;36.33;;;21.60;;
71150;SDS011;59071;42.138;24.768;2022-11-15T01:00:05;39.03;;;22.35;;
71150;SDS011;59071;42.138;24.768;2022-11-15T01:02:32;39.35;;;22.33;;
71150;SDS011;59071;42.138;24.768;2022-11-15T01:04:57;40.55;;;23.20;;
71150;SDS011;59071;42.138;24.768;2022-11-15T01:07:22;38.67;;;22.70;;
71150;SDS011;59071;42.138;24.768;2022-11-15T01:09:48;40.53;;;23.85;;
71150;SDS011;59071;42.138;24.768;2022-11-15T01:12:13;41.28;;;23.15;;
71150;SDS011;59071;42.138;24.768;2022-11-15T01:14:39;41.13;;;23.55;;
71150;SDS011;59071;42.138;24.768;2022-11-15T01:17:04;39.45;;;23.48;;
71150;SDS011;59071;42.138;24.768;2022-11-15T01:19:29;40.05;;;23.55;;
71150;SDS011;59071;42.138;24.768;2022-11-15T01:21:55;44.55;;;22.98;;
71150;SDS011;59071;42.138;24.768;2022-11-15T01:24:20;39.17;;;22.65;;
71150;SDS011;59071;42.138;24.768;2022-11-15T01:26:46;38.88;;;23.10;;
71150;SDS011;59071;42.138;24.768;2022-11-15T01:29:11;40.55;;;22.60;;
71150;SDS011;59071;42.138;24.768;2022-11-15T01:31:37;40.22;;;22.83;;
71150;SDS011;59071;42.138;24.768;2022-11-15T01:34:03;38.90;;;23.17;;
71150;SDS011;59071;42.138;24.768;2022-11-15T01:36:28;40.05;;;23.48;;
71150;SDS011;59071;42.138;24.768;2022-11-15T01:38:54;38.70;;;23.17;;
71150;SDS011;59071;42.138;24.768;2022-11-15T01:41:25;39.50;;;23.40;;
71150;SDS011;59071;42.138;24.768;2022-11-15T01:43:53;39.97;;;22.98;;
71150;SDS011;59071;42.138;24.768;2022-11-15T01:48:47;38.67;;;22.45;;
71150;SDS011;59071;42.138;24.768;2022-11-15T01:51:16;33.83;;;21.63;;
71150;SDS011;59071;42.138;24.768;2022-11-15T01:53:45;35.25;;;20.60;;
71150;SDS011;59071;42.138;24.768;2022-11-15T01:56:13;36.45;;;20.50;;
71150;SDS011;59071;42.138;24.768;2022-11-15T01:58:42;35.72;;;21.05;;
71150;SDS011;59071;42.138;24.768;2022-11-15T02:01:10;35.85;;;20.92;;
71150;SDS011;59071;42.138;24.768;2022-11-15T02:03:57;30.83;;;19.23;;
71150;SDS011;59071;42.138;24.768;2022-11-15T02:06:27;37.15;;;19.52;;
71150;SDS011;59071;42.138;24.768;2022-11-15T02:08:52;36.50;;;20.35;;
71150;SDS011;59071;42.138;24.768;2022-11-15T02:11:18;31.55;;;19.40;;
71150;SDS011;59071;42.138;24.768;2022-11-15T02:13:43;36.10;;;20.70;;
71150;SDS011;59071;42.138;24.768;2022-11-15T02:19:05;35.83;;;20.67;;
71150;SDS011;59071;42.138;24.768;2022-11-15T02:27:39;34.67;;;19.58;;
71150;SDS011;59071;42.138;24.768;2022-11-15T02:32:58;32.30;;;19.50;;
71150;SDS011;59071;42.138;24.768;2022-11-15T02:35:43;31.00;;;18.80;;
71150;SDS011;59071;42.138;24.768;2022-11-15T02:41:46;32.22;;;19.45;;
71150;SDS011;59071;42.138;24.768;2022-11-15T02:45:02;34.28;;;19.17;;
71150;SDS011;59071;42.138;24.768;2022-11-15T02:47:32;31.63;;;19.00;;
71150;SDS011;59071;42.138;24.768;2022-11-15T02:50:12;33.45;;;20.00;;
71150;SDS011;59071;42.138;24.768;2022-11-15T02:52:44;36.35;;;19.70;;
71150;SDS011;59071;42.138;24.768;2022-11-15T02:55:27;34.45;;;20.27;;
71150;SDS011;59071;42.138;24.768;2022-11-15T02:58:36;35.92;;;19.05;;
71150;SDS011;59071;42.138;24.768;2022-11-15T03:04:02;35.45;;;19.42;;
71150;SDS011;59071;42.138;24.768;2022-11-15T03:09:32;38.60;;;20.23;;
71150;SDS011;59071;42.138;24.768;2022-11-15T03:12:12;35.38;;;20.50;;
71150;SDS011;59071;42.138;24.768;2022-11-15T03:14:58;35.13;;;19.48;;
71150;SDS011;59071;42.138;24.768;2022-11-15T03:17:33;39.08;;;20.20;;
71150;SDS011;59071;42.138;24.768;2022-11-15T03:20:04;33.00;;;18.63;;
71150;SDS011;59071;42.138;24.768;2022-11-15T03:22:33;34.90;;;19.67;;
71150;SDS011;59071;42.138;24.768;2022-11-15T03:25:02;33.00;;;19.25;;
71150;SDS011;59071;42.138;24.768;2022-11-15T03:27:33;34.75;;;20.13;;
71150;SDS011;59071;42.138;24.768;2022-11-15T03:30:03;34.30;;;18.85;;
71150;SDS011;59071;42.138;24.768;2022-11-15T03:32:32;32.53;;;19.08;;
71150;SDS011;59071;42.138;24.768;2022-11-15T03:35:04;35.85;;;19.33;;
71150;SDS011;59071;42.138;24.768;2022-11-15T03:40:27;35.50;;;19.67;;
71150;SDS011;59071;42.138;24.768;2022-11-15T03:45:41;34.03;;;19.52;;
71150;SDS011;59071;42.138;24.768;2022-11-15T03:48:13;34.60;;;18.25;;
71150;SDS011;59071;42.138;24.768;2022-11-15T03:50:43;33.63;;;18.30;;
71150;SDS011;59071;42.138;24.768;2022-11-15T03:53:10;34.97;;;19.25;;
71150;SDS011;59071;42.138;24.768;2022-11-15T03:55:37;30.58;;;18.80;;
71150;SDS011;59071;42.138;24.768;2022-11-15T03:58:02;33.80;;;18.83;;
71150;SDS011;59071;42.138;24.768;2022-11-15T04:00:28;34.13;;;19.83;;
71150;SDS011;59071;42.138;24.768;2022-11-15T04:02:54;34.03;;;20.02;;
71150;SDS011;59071;42.138;24.768;2022-11-15T04:05:19;44.85;;;24.27;;
71150;SDS011;59071;42.138;24.768;2022-11-15T04:07:45;34.28;;;19.83;;
71150;SDS011;59071;42.138;24.768;2022-11-15T04:10:10;40.72;;;22.67;;
71150;SDS011;59071;42.138;24.768;2022-11-15T04:12:40;32.65;;;19.73;;
71150;SDS011;59071;42.138;24.768;2022-11-15T04:17:47;32.70;;;17.42;;
71150;SDS011;59071;42.138;24.768;2022-11-15T04:20:20;30.20;;;17.67;;
71150;SDS011;59071;42.138;24.768;2022-11-15T04:23:10;29.13;;;17.50;;
71150;SDS011;59071;42.138;24.768;2022-11-15T04:25:55;31.70;;;18.08;;
71150;SDS011;59071;42.138;24.768;2022-11-15T04:28:23;31.20;;;17.60;;
71150;SDS011;59071;42.138;24.768;2022-11-15T04:30:48;30.63;;;17.10;;
71150;SDS011;59071;42.138;24.768;2022-11-15T04:33:14;26.23;;;17.00;;
71150;SDS011;59071;42.138;24.768;2022-11-15T04:35:39;27.55;;;16.48;;
71150;SDS011;59071;42.138;24.768;2022-11-15T04:38:07;28.33;;;16.40;;
71150;SDS011;59071;42.138;24.768;2022-11-15T04:40:34;29.13;;;16.77;;
71150;SDS011;59071;42.138;24.768;2022-11-15T04:43:00;28.73;;;16.65;;
71150;SDS011;59071;42.138;24.768;2022-11-15T04:45:25;26.50;;;16.15;;
71150;SDS011;59071;42.138;24.768;2022-11-15T04:47:51;29.13;;;17.23;;
71150;SDS011;59071;42.138;24.768;2022-11-15T04:50:16;34.28;;;17.63;;
71150;SDS011;59071;42.138;24.768;2022-11-15T04:52:43;37.58;;;22.35;;
71150;SDS011;59071;42.138;24.768;2022-11-15T04:55:14;47.42;;;26.55;;
71150;SDS011;59071;42.138;24.768;2022-11-15T04:57:40;32.97;;;18.58;;
71150;SDS011;59071;42.138;24.768;2022-11-15T05:00:06;28.02;;;15.05;;
71150;SDS011;59071;42.138;24.768;2022-11-15T05:02:33;23.42;;;14.95;;
71150;SDS011;59071;42.138;24.768;2022-11-15T05:05:17;24.88;;;14.95;;
71150;SDS011;59071;42.138;24.768;2022-11-15T05:07:43;26.23;;;14.82;;
71150;SDS011;59071;42.138;24.768;2022-11-15T05:10:08;29.27;;;17.48;;
71150;SDS011;59071;42.138;24.768;2022-11-15T05:12:34;27.85;;;16.52;;
71150;SDS011;59071;42.138;24.768;2022-11-15T05:15:00;28.25;;;16.55;;
71150;SDS011;59071;42.138;24.768;2022-11-15T05:17:25;27.83;;;15.98;;
71150;SDS011;59071;42.138;24.768;2022-11-15T05:19:51;28.45;;;16.08;;
71150;SDS011;59071;42.138;24.768;2022-11-15T05:22:17;28.35;;;15.93;;
71150;SDS011;59071;42.138;24.768;2022-11-15T05:24:43;27.13;;;15.48;;
71150;SDS011;59071;42.138;24.768;2022-11-15T05:27:08;28.05;;;16.40;;
71150;SDS011;59071;42.138;24.768;2022-11-15T05:29:33;30.30;;;17.80;;
71150;SDS011;59071;42.138;24.768;2022-11-15T05:31:59;28.48;;;16.90;;
71150;SDS011;59071;42.138;24.768;2022-11-15T05:34:24;28.83;;;17.35;;
71150;SDS011;59071;42.138;24.768;2022-11-15T05:36:51;30.65;;;17.38;;
71150;SDS011;59071;42.138;24.768;2022-11-15T05:39:17;31.88;;;17.73;;
71150;SDS011;59071;42.138;24.768;2022-11-15T05:41:44;31.98;;;18.45;;
71150;SDS011;59071;42.138;24.768;2022-11-15T05:44:14;30.20;;;17.13;;
71150;SDS011;59071;42.138;24.768;2022-11-15T05:46:43;29.42;;;17.63;;
71150;SDS011;59071;42.138;24.768;2022-11-15T05:49:10;28.95;;;16.88;;
71150;SDS011;59071;42.138;24.768;2022-11-15T05:51:38;26.38;;;15.82;;
71150;SDS011;59071;42.138;24.768;2022-11-15T05:54:06;83.20;;;49.33;;
71150;SDS011;59071;42.138;24.768;2022-11-15T05:56:31;74.10;;;39.95;;
71150;SDS011;59071;42.138;24.768;2022-11-15T05:58:57;79.88;;;43.95;;
71150;SDS011;59071;42.138;24.768;2022-11-15T06:01:24;43.28;;;24.23;;
71150;SDS011;59071;42.138;24.768;2022-11-15T06:03:50;34.78;;;17.65;;
71150;SDS011;59071;42.138;24.768;2022-11-15T06:06:16;28.25;;;15.75;;
71150;SDS011;59071;42.138;24.768;2022-11-15T06:08:41;28.30;;;15.55;;
71150;SDS011;59071;42.138;24.768;2022-11-15T06:11:07;29.20;;;15.70;;
71150;SDS011;59071;42.138;24.768;2022-11-15T06:13:32;27.58;;;17.25;;
71150;SDS011;59071;42.138;24.768;2022-11-15T06:15:59;36.42;;;19.33;;
71150;SDS011;59071;42.138;24.768;2022-11-15T06:18:25;32.75;;;15.80;;
71150;SDS011;59071;42.138;24.768;2022-11-15T06:20:50;30.55;;;15.57;;
71150;SDS011;59071;42.138;24.768;2022-11-15T06:23:16;36.13;;;15.60;;
71150;SDS011;59071;42.138;24.768;2022-11-15T06:25:41;29.42;;;16.10;;
71150;SDS011;59071;42.138;24.768;2022-11-15T06:28:07;30.17;;;16.15;;
71150;SDS011;59071;42.138;24.768;2022-11-15T06:30:33;27.80;;;15.63;;
71150;SDS011;59071;42.138;24.768;2022-11-15T06:33:01;24.60;;;15.68;;
71150;SDS011;59071;42.138;24.768;2022-11-15T06:35:29;27.13;;;14.68;;
71150;SDS011;59071;42.138;24.768;2022-11-15T06:37:55;24.20;;;14.70;;
71150;SDS011;59071;42.138;24.768;2022-11-15T06:40:21;27.92;;;14.95;;
71150;SDS011;59071;42.138;24.768;2022-11-15T06:42:47;26.00;;;14.40;;
71150;SDS011;59071;42.138;24.768;2022-11-15T06:45:12;25.25;;;13.90;;
71150;SDS011;59071;42.138;24.768;2022-11-15T06:47:44;58.17;;;31.33;;
71150;SDS011;59071;42.138;24.768;2022-11-15T06:50:11;35.13;;;16.42;;
71150;SDS011;59071;42.138;24.768;2022-11-15T06:52:37;26.58;;;13.55;;
71150;SDS011;59071;42.138;24.768;2022-11-15T06:55:02;29.17;;;14.88;;
71150;SDS011;59071;42.138;24.768;2022-11-15T06:57:27;29.98;;;14.73;;
71150;SDS011;59071;42.138;24.768;2022-11-15T06:59:53;26.15;;;14.32;;
71150;SDS011;59071;42.138;24.768;2022-11-15T07:02:18;23.77;;;13.48;;
71150;SDS011;59071;42.138;24.768;2022-11-15T07:04:44;20.95;;;13.40;;
71150;SDS011;59071;42.138;24.768;2022-11-15T07:07:09;24.88;;;14.20;;
71150;SDS011;59071;42.138;24.768;2022-11-15T07:09:35;25.17;;;14.32;;
71150;SDS011;59071;42.138;24.768;2022-11-15T07:12:00;21.25;;;13.18;;
71150;SDS011;59071;42.138;24.768;2022-11-15T07:14:25;25.13;;;13.95;;
71150;SDS011;59071;42.138;24.768;2022-11-15T07:16:51;27.00;;;15.27;;
71150;SDS011;59071;42.138;24.768;2022-11-15T07:19:16;22.67;;;12.63;;
71150;SDS011;59071;42.138;24.768;2022-11-15T07:21:41;22.20;;;12.80;;
71150;SDS011;59071;42.138;24.768;2022-11-15T07:24:07;22.35;;;12.95;;
71150;SDS011;59071;42.138;24.768;2022-11-15T07:26:33;27.42;;;13.80;;
71150;SDS011;59071;42.138;24.768;2022-11-15T07:28:59;21.15;;;13.43;;
71150;SDS011;59071;42.138;24.768;2022-11-15T07:31:24;24.10;;;13.75;;
71150;SDS011;59071;42.138;24.768;2022-11-15T07:33:50;21.48;;;13.77;;
71150;SDS011;59071;42.138;24.768;2022-11-15T07:36:15;22.20;;;12.65;;
71150;SDS011;59071;42.138;24.768;2022-11-15T07:38:41;21.23;;;12.55;;
71150;SDS011;59071;42.138;24.768;2022-11-15T07:41:07;22.70;;;12.95;;
71150;SDS011;59071;42.138;24.768;2022-11-15T07:43:32;23.13;;;14.52;;
71150;SDS011;59071;42.138;24.768;2022-11-15T07:45:59;25.27;;;14.68;;
71150;SDS011;59071;42.138;24.768;2022-11-15T07:48:30;33.65;;;20.98;;
71150;SDS011;59071;42.138;24.768;2022-11-15T07:50:55;25.77;;;16.95;;
71150;SDS011;59071;42.138;24.768;2022-11-15T07:53:21;23.10;;;13.55;;
71150;SDS011;59071;42.138;24.768;2022-11-15T07:55:46;23.23;;;13.35;;
71150;SDS011;59071;42.138;24.768;2022-11-15T07:58:11;20.80;;;12.93;;
71150;SDS011;59071;42.138;24.768;2022-11-15T08:00:37;22.05;;;13.48;;
71150;SDS011;59071;42.138;24.768;2022-11-15T08:05:28;20.80;;;12.43;;
71150;SDS011;59071;42.138;24.768;2022-11-15T08:07:57;24.40;;;13.07;;
71150;SDS011;59071;42.138;24.768;2022-11-15T08:10:23;18.60;;;12.07;;
71150;SDS011;59071;42.138;24.768;2022-11-15T08:12:55;19.35;;;13.05;;
71150;SDS011;59071;42.138;24.768;2022-11-15T08:15:24;21.27;;;13.25;;
71150;SDS011;59071;42.138;24.768;2022-11-15T08:17:53;18.20;;;12.88;;
71150;SDS011;59071;42.138;24.768;2022-11-15T08:20:23;22.05;;;13.50;;
71150;SDS011;59071;42.138;24.768;2022-11-15T08:22:50;23.25;;;13.45;;
71150;SDS011;59071;42.138;24.768;2022-11-15T08:25:16;18.58;;;12.45;;
71150;SDS011;59071;42.138;24.768;2022-11-15T08:27:42;22.90;;;13.20;;
71150;SDS011;59071;42.138;24.768;2022-11-15T08:30:07;21.00;;;13.18;;
71150;SDS011;59071;42.138;24.768;2022-11-15T08:32:33;22.50;;;13.38;;
71150;SDS011;59071;42.138;24.768;2022-11-15T08:34:58;25.38;;;13.48;;
71150;SDS011;59071;42.138;24.768;2022-11-15T08:37:24;20.80;;;13.68;;
71150;SDS011;59071;42.138;24.768;2022-11-15T08:39:49;49.30;;;28.42;;
71150;SDS011;59071;42.138;24.768;2022-11-15T08:42:15;42.30;;;23.40;;
71150;SDS011;59071;42.138;24.768;2022-11-15T08:44:41;23.88;;;14.65;;
71150;SDS011;59071;42.138;24.768;2022-11-15T08:47:07;22.00;;;13.85;;
71150;SDS011;59071;42.138;24.768;2022-11-15T08:49:32;23.83;;;14.38;;
71150;SDS011;59071;42.138;24.768;2022-11-15T08:51:57;21.90;;;14.02;;
71150;SDS011;59071;42.138;24.768;2022-11-15T08:54:23;22.27;;;15.07;;
71150;SDS011;59071;42.138;24.768;2022-11-15T08:56:48;26.77;;;14.85;;
71150;SDS011;59071;42.138;24.768;2022-11-15T08:59:14;25.92;;;15.85;;
71150;SDS011;59071;42.138;24.768;2022-11-15T09:01:39;23.98;;;15.77;;
71150;SDS011;59071;42.138;24.768;2022-11-15T09:04:04;21.20;;;15.48;;
71150;SDS011;59071;42.138;24.768;2022-11-15T09:06:30;23.58;;;16.17;;
71150;SDS011;59071;42.138;24.768;2022-11-15T09:08:56;25.27;;;16.80;;
71150;SDS011;59071;42.138;24.768;2022-11-15T09:11:21;25.35;;;16.95;;
71150;SDS011;59071;42.138;24.768;2022-11-15T09:13:48;24.23;;;17.20;;
71150;SDS011;59071;42.138;24.768;2022-11-15T09:16:14;28.00;;;17.40;;
71150;SDS011;59071;42.138;24.768;2022-11-15T09:18:41;25.20;;;17.38;;
71150;SDS011;59071;42.138;24.768;2022-11-15T09:21:06;24.85;;;17.08;;
71150;SDS011;59071;42.138;24.768;2022-11-15T09:23:32;26.70;;;17.75;;
71150;SDS011;59071;42.138;24.768;2022-11-15T09:25:58;23.80;;;16.75;;
71150;SDS011;59071;42.138;24.768;2022-11-15T09:28:26;28.52;;;18.27;;
71150;SDS011;59071;42.138;24.768;2022-11-15T09:30:55;27.15;;;16.85;;
71150;SDS011;59071;42.138;24.768;2022-11-15T09:33:22;24.40;;;17.23;;
71150;SDS011;59071;42.138;24.768;2022-11-15T09:35:47;25.17;;;17.27;;
71150;SDS011;59071;42.138;24.768;2022-11-15T09:38:13;25.05;;;16.98;;
71150;SDS011;59071;42.138;24.768;2022-11-15T09:40:38;26.27;;;17.17;;
71150;SDS011;59071;42.138;24.768;2022-11-15T09:51:30;30.50;;;19.65;;
71150;SDS011;59071;42.138;24.768;2022-11-15T09:56:29;72.43;;;46.38;;
71150;SDS011;59071;42.138;24.768;2022-11-15T10:04:23;27.40;;;18.77;;
71150;SDS011;59071;42.138;24.768;2022-11-15T10:06:55;30.38;;;19.25;;
71150;SDS011;59071;42.138;24.768;2022-11-15T10:09:33;32.20;;;20.00;;
71150;SDS011;59071;42.138;24.768;2022-11-15T10:12:08;28.83;;;19.88;;
71150;SDS011;59071;42.138;24.768;2022-11-15T10:14:35;28.00;;;19.63;;
71150;SDS011;59071;42.138;24.768;2022-11-15T10:22:48;28.65;;;17.80;;
71150;SDS011;59071;42.138;24.768;2022-11-15T10:28:09;26.30;;;17.98;;
71150;SDS011;59071;42.138;24.768;2022-11-15T10:30:45;27.25;;;17.60;;
71150;SDS011;59071;42.138;24.768;2022-11-15T10:38:43;27.77;;;17.50;;
71150;SDS011;59071;42.138;24.768;2022-11-15T10:41:20;38.72;;;27.52;;
71150;SDS011;59071;42.138;24.768;2022-11-15T10:46:32;27.10;;;18.10;;
71150;SDS011;59071;42.138;24.768;2022-11-15T10:49:15;26.08;;;18.00;;
71150;SDS011;59071;42.138;24.768;2022-11-15T10:51:55;28.50;;;17.88;;
71150;SDS011;59071;42.138;24.768;2022-11-15T10:57:30;27.38;;;17.65;;
71150;SDS011;59071;42.138;24.768;2022-11-15T11:00:07;28.58;;;18.58;;
71150;SDS011;59071;42.138;24.768;2022-11-15T11:02:57;26.17;;;18.35;;
71150;SDS011;59071;42.138;24.768;2022-11-15T11:05:33;29.52;;;19.10;;
71150;SDS011;59071;42.138;24.768;2022-11-15T11:08:00;26.00;;;18.25;;
71150;SDS011;59071;42.138;24.768;2022-11-15T11:10:54;26.40;;;18.60;;
71150;SDS011;59071;42.138;24.768;2022-11-15T11:13:22;26.20;;;17.50;;
71150;SDS011;59071;42.138;24.768;2022-11-15T11:47:28;24.33;;;17.08;;
71150;SDS011;59071;42.138;24.768;2022-11-15T11:50:04;23.45;;;16.55;;
71150;SDS011;59071;42.138;24.768;2022-11-15T11:55:15;25.48;;;16.27;;
71150;SDS011;59071;42.138;24.768;2022-11-15T12:00:28;24.48;;;16.30;;
71150;SDS011;59071;42.138;24.768;2022-11-15T12:03:09;22.75;;;16.50;;
71150;SDS011;59071;42.138;24.768;2022-11-15T12:05:44;23.27;;;15.88;;
71150;SDS011;59071;42.138;24.768;2022-11-15T12:08:25;24.08;;;16.58;;
71150;SDS011;59071;42.138;24.768;2022-11-15T12:11:00;22.75;;;16.55;;
71150;SDS011;59071;42.138;24.768;2022-11-15T12:13:36;21.63;;;15.85;;
71150;SDS011;59071;42.138;24.768;2022-11-15T12:18:36;24.05;;;17.23;;
71150;SDS011;59071;42.138;24.768;2022-11-15T12:21:46;25.80;;;17.48;;
71150;SDS011;59071;42.138;24.768;2022-11-15T12:24:08;24.15;;;17.27;;
71150;SDS011;59071;42.138;24.768;2022-11-15T12:26:45;26.90;;;18.23;;
71150;SDS011;59071;42.138;24.768;2022-11-15T12:29:24;24.20;;;17.80;;
71150;SDS011;59071;42.138;24.768;2022-11-15T12:32:35;25.00;;;16.95;;
71150;SDS011;59071;42.138;24.768;2022-11-15T12:35:01;22.17;;;16.92;;
71150;SDS011;59071;42.138;24.768;2022-11-15T12:42:35;34.03;;;24.48;;
71150;SDS011;59071;42.138;24.768;2022-11-15T12:45:00;31.15;;;21.42;;
71150;SDS011;59071;42.138;24.768;2022-11-15T12:47:26;23.55;;;16.77;;
71150;SDS011;59071;42.138;24.768;2022-11-15T12:49:52;21.48;;;15.70;;
71150;SDS011;59071;42.138;24.768;2022-11-15T12:52:18;23.17;;;17.35;;
71150;SDS011;59071;42.138;24.768;2022-11-15T12:54:54;26.58;;;16.70;;
71150;SDS011;59071;42.138;24.768;2022-11-15T12:57:27;21.67;;;16.60;;
71150;SDS011;59071;42.138;24.768;2022-11-15T13:02:26;24.45;;;16.92;;
71150;SDS011;59071;42.138;24.768;2022-11-15T13:05:26;26.45;;;17.13;;
71150;SDS011;59071;42.138;24.768;2022-11-15T13:17:45;23.20;;;16.75;;
71150;SDS011;59071;42.138;24.768;2022-11-15T13:27:48;26.25;;;17.48;;
71150;SDS011;59071;42.138;24.768;2022-11-15T13:30:19;25.83;;;17.75;;
71150;SDS011;59071;42.138;24.768;2022-11-15T13:32:47;30.10;;;19.35;;
71150;SDS011;59071;42.138;24.768;2022-11-15T13:35:31;29.70;;;19.38;;
71150;SDS011;59071;42.138;24.768;2022-11-15T13:38:03;27.55;;;18.25;;
71150;SDS011;59071;42.138;24.768;2022-11-15T13:40:34;29.65;;;19.42;;
71150;SDS011;59071;42.138;24.768;2022-11-15T13:43:13;29.70;;;19.33;;
71150;SDS011;59071;42.138;24.768;2022-11-15T13:46:13;29.27;;;19.52;;
71150;SDS011;59071;42.138;24.768;2022-11-15T13:48:40;29.67;;;18.65;;
71150;SDS011;59071;42.138;24.768;2022-11-15T13:51:13;28.85;;;19.90;;
71150;SDS011;59071;42.138;24.768;2022-11-15T13:53:40;32.22;;;20.55;;
71150;SDS011;59071;42.138;24.768;2022-11-15T13:56:11;31.42;;;19.60;;
71150;SDS011;59071;42.138;24.768;2022-11-15T13:58:38;27.35;;;19.25;;
71150;SDS011;59071;42.138;24.768;2022-11-15T14:01:04;31.13;;;18.98;;
71150;SDS011;59071;42.138;24.768;2022-11-15T14:03:31;29.50;;;19.27;;
71150;SDS011;59071;42.138;24.768;2022-11-15T14:06:09;28.13;;;19.15;;
71150;SDS011;59071;42.138;24.768;2022-11-15T14:08:37;29.42;;;19.83;;
71150;SDS011;59071;42.138;24.768;2022-11-15T14:11:25;29.98;;;20.02;;
71150;SDS011;59071;42.138;24.768;2022-11-15T14:16:34;28.63;;;19.52;;
71150;SDS011;59071;42.138;24.768;2022-11-15T14:19:01;30.98;;;20.50;;
71150;SDS011;59071;42.138;24.768;2022-11-15T14:21:28;27.90;;;19.67;;
71150;SDS011;59071;42.138;24.768;2022-11-15T14:24:13;32.58;;;20.05;;
71150;SDS011;59071;42.138;24.768;2022-11-15T14:26:42;31.02;;;19.92;;
71150;SDS011;59071;42.138;24.768;2022-11-15T14:29:27;29.13;;;19.63;;
71150;SDS011;59071;42.138;24.768;2022-11-15T14:31:54;31.02;;;19.30;;
71150;SDS011;59071;42.138;24.768;2022-11-15T14:34:37;29.67;;;19.63;;
71150;SDS011;59071;42.138;24.768;2022-11-15T14:37:02;32.38;;;20.23;;
71150;SDS011;59071;42.138;24.768;2022-11-15T14:39:28;29.67;;;19.40;;
71150;SDS011;59071;42.138;24.768;2022-11-15T14:41:53;28.60;;;19.02;;
71150;SDS011;59071;42.138;24.768;2022-11-15T14:44:18;31.50;;;19.35;;
71150;SDS011;59071;42.138;24.768;2022-11-15T14:46:45;32.67;;;19.50;;
71150;SDS011;59071;42.138;24.768;2022-11-15T14:49:11;33.28;;;18.95;;
71150;SDS011;59071;42.138;24.768;2022-11-15T14:51:38;38.10;;;20.33;;
71150;SDS011;59071;42.138;24.768;2022-11-15T14:54:03;33.60;;;20.17;;
71150;SDS011;59071;42.138;24.768;2022-11-15T14:56:28;32.53;;;20.75;;
71150;SDS011;59071;42.138;24.768;2022-11-15T14:58:54;31.63;;;20.38;;
71150;SDS011;59071;42.138;24.768;2022-11-15T15:03:48;34.00;;;20.75;;
71150;SDS011;59071;42.138;24.768;2022-11-15T15:06:13;32.38;;;20.95;;
71150;SDS011;59071;42.138;24.768;2022-11-15T15:08:39;36.03;;;21.55;;
71150;SDS011;59071;42.138;24.768;2022-11-15T15:11:13;33.97;;;21.17;;
71150;SDS011;59071;42.138;24.768;2022-11-15T15:13:42;36.20;;;22.27;;
71150;SDS011;59071;42.138;24.768;2022-11-15T15:16:08;35.15;;;22.50;;
71150;SDS011;59071;42.138;24.768;2022-11-15T15:18:33;34.05;;;21.10;;
71150;SDS011;59071;42.138;24.768;2022-11-15T15:20:59;37.70;;;22.55;;
71150;SDS011;59071;42.138;24.768;2022-11-15T15:23:28;40.90;;;23.02;;
71150;SDS011;59071;42.138;24.768;2022-11-15T15:25:57;37.05;;;22.88;;
71150;SDS011;59071;42.138;24.768;2022-11-15T15:28:23;39.17;;;22.50;;
71150;SDS011;59071;42.138;24.768;2022-11-15T15:30:48;41.08;;;22.25;;
71150;SDS011;59071;42.138;24.768;2022-11-15T15:33:14;40.55;;;23.55;;
71150;SDS011;59071;42.138;24.768;2022-11-15T15:35:40;40.28;;;23.92;;
71150;SDS011;59071;42.138;24.768;2022-11-15T15:38:06;40.00;;;23.48;;
71150;SDS011;59071;42.138;24.768;2022-11-15T15:40:31;35.53;;;22.63;;
71150;SDS011;59071;42.138;24.768;2022-11-15T15:42:58;37.05;;;23.13;;
71150;SDS011;59071;42.138;24.768;2022-11-15T15:45:24;37.10;;;23.05;;
71150;SDS011;59071;42.138;24.768;2022-11-15T15:47:51;39.20;;;23.83;;
71150;SDS011;59071;42.138;24.768;2022-11-15T15:50:20;38.40;;;23.05;;
71150;SDS011;59071;42.138;24.768;2022-11-15T15:52:57;42.65;;;24.20;;
71150;SDS011;59071;42.138;24.768;2022-11-15T15:55:24;40.30;;;23.05;;
71150;SDS011;59071;42.138;24.768;2022-11-15T15:57:50;40.38;;;23.45;;
71150;SDS011;59071;42.138;24.768;2022-11-15T16:00:16;39.33;;;24.15;;
71150;SDS011;59071;42.138;24.768;2022-11-15T16:02:42;37.17;;;23.27;;
71150;SDS011;59071;42.138;24.768;2022-11-15T16:05:08;39.47;;;24.20;;
71150;SDS011;59071;42.138;24.768;2022-11-15T16:07:34;38.92;;;23.95;;
71150;SDS011;59071;42.138;24.768;2022-11-15T16:10:00;42.75;;;24.35;;
71150;SDS011;59071;42.138;24.768;2022-11-15T16:12:30;40.63;;;24.02;;
71150;SDS011;59071;42.138;24.768;2022-11-15T16:14:57;38.90;;;23.17;;
71150;SDS011;59071;42.138;24.768;2022-11-15T16:17:24;41.22;;;23.98;;
71150;SDS011;59071;42.138;24.768;2022-11-15T16:19:52;43.70;;;23.48;;
71150;SDS011;59071;42.138;24.768;2022-11-15T16:22:18;40.38;;;24.60;;
71150;SDS011;59071;42.138;24.768;2022-11-15T16:24:43;40.33;;;24.05;;
71150;SDS011;59071;42.138;24.768;2022-11-15T16:27:12;42.28;;;24.48;;
71150;SDS011;59071;42.138;24.768;2022-11-15T16:29:39;41.00;;;24.77;;
71150;SDS011;59071;42.138;24.768;2022-11-15T16:32:05;45.35;;;25.70;;
71150;SDS011;59071;42.138;24.768;2022-11-15T16:34:30;51.03;;;27.30;;
71150;SDS011;59071;42.138;24.768;2022-11-15T16:36:55;50.60;;;26.67;;
71150;SDS011;59071;42.138;24.768;2022-11-15T16:39:21;46.28;;;26.38;;